Terminal Aerodrome Forecast
Issued by NWS Bismarck, ND

Home | Current Version | Previous Version | Text Only | Print | Product List | Glossary On
Versions: 1 2 3 4 5 6 7 8 9 10 11 12 13 14 15 16 17
000
FTUS43 KBIS 211700
TAFBIS
TAF
KBIS 211740Z 2118/2218 14007KT P6SM SCT080
     FM212100 14010KT P6SM FEW015 OVC070
      TEMPO 2200/2203 BKN005
     FM220300 11007KT P6SM VCSH OVC003
     FM220800 05007KT 1SM -SN BR SCT002 OVC009
     FM221300 35011KT 1SM -SN BR OVC008=

USA.gov is the U.S. government's official web portal to all federal, state and local government web resources and services.